JRLK1: John Redmond Lake
Data processed at Fri 16Dec2022 05:39 GMT
All information presented herein is the property of the government of the United States of America and may be revised or deleted at any time without prior notice.
Dissemination of this information without the expressed written consent of the Public Affairs Office, Tulsa District U.S. Army Corps of Engineers is strictly prohibited.
These data are gathered electronically and, as presented, have not undergone any form of quality control. These data are not guaranteed to be valid or correct.
Go to home page.
Go to station list.
Upstream stations:
Downstream station:Previous Day
Next Day
Current Day
SHEF ID: JRLK1 John Redmond Lake
STATION TYPE: RESERVOIR
Flood Pool: Bottom = 1041.00, Top = 1068.00
PRECIP ELEVATION STORAGE INFLOW RELEASE AIR-TEMP WIND-DIRWIND-SPEED REL-HUMID SOLAR-RAD VOLTAGE BAT-LOAD
in ft ac-ft cfs cfs F deg mph % W/m2 volt volt
Ccp-Rev Ccp-Rev Ccp-Rev Rev-Regi Rev-Regi Ccp-Rev Ccp-Rev Ccp-Rev Ccp-Rev Ccp-Rev Ccp-Rev Ccp-Rev
(US/Central)
12/15 00:00 0.00 1041.55 66870 36 ---- 34.54 290.80 19.50 69.92 0.00 12.61 12.26
12/15 01:00 0.00 1041.57 67024 36 ---- 33.44 291.60 22.60 71.05 0.00 12.60 12.24
12/15 02:00 0.00 1041.54 66831 19 ---- 32.47 296.40 25.50 72.14 0.00 12.58 12.23
12/15 03:00 0.00 1041.52 66637 540 ---- 30.90 290.70 24.80 75.84 0.00 12.58 12.21
12/15 04:00 0.00 1041.51 66560 601 ---- 29.91 289.00 22.00 75.73 0.00 12.57 12.20
12/15 05:00 0.00 1041.57 67024 673 ---- 29.19 283.40 22.70 77.30 0.00 12.55 12.20
12/15 06:00 0.00 1041.55 66870 691 ---- 28.87 282.80 20.50 76.52 0.00 12.54 12.17
12/15 07:00 0.00 1041.58 67102 691 ---- 28.92 280.90 22.10 74.86 0.00 12.53 12.17
12/15 08:00 0.00 1041.58 67102 151 ---- 29.41 285.30 25.90 73.05 0.00 12.53 12.15
12/15 09:00 0.00 1041.58 67102 90 ---- 29.80 291.90 28.50 71.80 106.90 13.26 12.24
12/15 10:00 0.00 1041.62 67412 202 ---- 30.24 297.30 28.80 69.74 328.00 13.59 12.93
12/15 11:00 0.00 1041.57 67024 184 ---- 31.28 304.60 29.20 65.04 448.30 13.77 13.06
12/15 12:00 0.00 1041.63 67489 184 ---- 32.02 297.80 27.60 61.85 534.30 13.77 13.14
12/15 13:00 0.00 1041.61 67334 184 ---- 32.86 296.60 28.80 59.70 532.60 13.70 13.14
12/15 14:00 0.00 1041.65 67644 184 ---- 33.87 292.20 27.20 57.98 496.40 13.11 12.88
12/15 15:00 0.00 1041.61 67334 0 ---- 34.93 292.10 28.90 54.43 381.00 12.91 12.57
12/15 16:00 0.00 1041.60 67257 0 ---- 35.65 289.30 27.10 54.07 183.60 12.88 12.50
12/15 17:00 0.00 1041.58 67102 0 ---- 35.87 286.50 25.40 53.32 44.60 12.77 12.46
12/15 18:00 0.00 1041.55 66870 0 ---- 35.04 292.60 23.10 56.32 0.00 12.74 12.40
12/15 19:00 0.00 1041.63 67489 0 ---- 33.82 291.20 23.80 57.88 0.00 12.71 12.36
12/15 20:00 0.00 1041.57 67024 0 ---- 32.83 295.80 24.30 60.59 0.00 12.70 12.34
12/15 21:00 0.00 1041.59 67179 0 ---- 31.95 297.20 25.10 61.80 0.00 12.69 12.34
12/15 22:00 0.00 1041.54 66792 0 ---- 30.85 290.00 21.10 64.15 0.00 12.67 12.31
12/15 23:00 0.00 1041.54 66792 ---- ---- 30.40 291.30 24.80 64.12 0.00 12.65 12.31